Terminal Aerodrome Forecast
Issued by NWS Tampa Bay Area, FL

Home | Current Version | Previous Version | Text Only | Print | Product List | Glossary On
Versions: 1 2 3 4 5 6 7 8 9 10 11 12 13 14 15 16 17 18
000
FTUS42 KTBW 252320
TAFSRQ
TAF
KSRQ 252320Z 2600/2624 13007KT P6SM VCSH SCT025 BKN080
     FM260400 10008KT P6SM SCT025 BKN050 OVC080
     FM261400 12013G20KT 6SM -RA VCTS FEW007 SCT015CB OVC025
     FM261700 12015G24KT 5SM -RA VCTS BKN015CB=

USA.gov is the U.S. government's official web portal to all federal, state and local government web resources and services.